Time;durP1;ratioP1;P1;durP2;ratioP2;P2;SDS_P1;SDS_P2;PMS_P1;PMS_P2;Temp;Humidity;BMP_temperature;BMP_pressure;BME280_temperature;BME280_humidity;BME280_pressure;Samples;Min_cycle;Max_cycle;Signal;HPM_P1;HPM_P2
2022/02/05 00:00:51;;;;;;;;;;;;;;;5.51;66.01;101643.03;5027833;28;19963;-61
2022/02/05 00:05:55;;;;;;;;;;;;;;;5.42;65.39;101665.66;5032166;28;19909;-63
2022/02/05 00:08:35;;;;;;;;;;;;;;;5.33;65.34;101634.31;5032491;28;20488;-62
2022/02/05 00:19:46;;;;;;;;;;;;;;;5.21;66.39;101648.19;5032006;28;19961;-62
2022/02/05 00:41:11;;;;;;;;;;;;;;;5.33;66.75;101659.56;4968590;28;20003;-63
2022/02/05 00:43:36;;;;;;;;;;;;;;;5.28;66.97;101670.00;5014613;28;19924;-63
2022/02/05 00:46:02;;;;;;;;;;;;;;;5.18;67.43;101663.91;5032260;28;20000;-63
2022/02/05 00:48:27;;;;;;;;;;;;;;;5.17;67.67;101665.63;5031591;28;19960;-60
2022/02/05 00:51:09;;;;;;;;;;;;;;;5.09;67.95;101675.19;5032011;28;19960;-62
2022/02/05 00:53:37;;;;;;;;;;;;;;;4.99;67.72;101670.81;5031550;28;20067;-61
2022/02/05 00:56:10;;;;;;;;;;;;;;;4.98;67.45;101677.78;5014293;28;20427;-61
2022/02/05 00:58:36;;;;;;;;;;;;;;;4.95;67.61;101700.41;5027251;28;19921;-61
2022/02/05 01:01:02;;;;;;;;;;;;;;;4.95;67.46;101680.38;5027948;28;19920;-62
2022/02/05 01:03:27;;;;;;;;;;;;;;;4.93;67.48;101682.09;5029010;28;19909;-62
2022/02/05 01:05:52;;;;;;;;;;;;;;;4.91;67.85;101691.69;5028119;28;20463;-63
2022/02/05 01:08:17;;;;;;;;;;;;;;;4.95;67.43;101710.84;5007683;28;19952;-62
2022/02/05 01:10:43;;;;;;;;;;;;;;;4.89;67.77;101698.63;5006926;28;19968;-61
2022/02/05 01:13:11;;;;;;;;;;;;;;;4.89;67.81;101702.13;5007986;28;20371;-62
2022/02/05 01:15:47;;;;;;;;;;;;;;;4.87;67.77;101692.53;5007962;28;20016;-61
2022/02/05 01:18:15;;;;;;;;;;;;;;;4.92;67.80;101698.66;5009280;28;19914;-61
2022/02/05 01:26:15;;;;;;;;;;;;;;;4.99;67.77;101715.19;5008701;28;19931;-62
2022/02/05 01:28:42;;;;;;;;;;;;;;;4.99;67.89;101716.09;5001018;28;19940;-62
2022/02/05 01:31:07;;;;;;;;;;;;;;;4.99;67.98;101723.03;4997416;28;19952;-62
2022/02/05 01:33:52;;;;;;;;;;;;;;;5.04;67.93;101721.34;4990897;28;19918;-62
2022/02/05 01:50:23;;;;;;;;;;;;;;;5.06;67.79;101735.28;4997333;28;19960;-63
2022/02/05 01:58:18;;;;;;;;;;;;;;;4.89;68.90;101754.38;4990374;28;20441;-62
2022/02/05 02:12:13;;;;;;;;;;;;;;;4.89;68.83;101784.81;5118690;23;20416;-62
2022/02/05 02:22:00;;;;;;;;;;;;;;;4.91;69.22;101788.34;5048083;28;19913;-62
2022/02/05 02:24:37;;;;;;;;;;;;;;;4.84;69.61;101773.50;5047034;28;19909;-61
2022/02/05 02:27:21;;;;;;;;;;;;;;;4.86;69.51;101788.31;5046976;28;19943;-60
2022/02/05 02:30:05;;;;;;;;;;;;;;;4.84;69.70;101786.56;5012228;28;19917;-61
2022/02/05 02:32:32;;;;;;;;;;;;;;;4.79;70.01;101800.44;5026208;28;20350;-62
2022/02/05 02:35:04;;;;;;;;;;;;;;;4.87;69.96;101797.00;5025713;28;19967;-62
2022/02/05 02:37:39;;;;;;;;;;;;;;;4.79;70.18;101794.38;5026483;28;19960;-62
2022/02/05 02:40:19;;;;;;;;;;;;;;;4.79;70.27;101803.06;5024990;28;19963;-62
2022/02/05 02:42:48;;;;;;;;;;;;;;;4.77;70.31;101796.97;5019677;28;19913;-62
2022/02/05 02:45:13;;;;;;;;;;;;;;;4.68;70.71;101803.00;5006866;28;19913;-61
2022/02/05 02:47:42;;;;;;;;;;;;;;;4.73;70.57;101804.78;5007851;28;19913;-61
2022/02/05 02:50:14;;;;;;;;;;;;;;;4.69;70.65;101809.09;5021465;28;20375;-62
2022/02/05 02:58:09;;;;;;;;;;;;;;;4.71;70.26;101815.19;5007526;28;19959;-62
2022/02/05 03:00:34;;;;;;;;;;;;;;;4.69;70.16;101819.53;5026253;28;19920;-63
2022/02/05 03:03:00;;;;;;;;;;;;;;;4.66;70.35;101824.72;5018974;28;19928;-64
2022/02/05 03:05:25;;;;;;;;;;;;;;;4.70;70.16;101830.84;5018349;28;19921;-62
2022/02/05 03:07:50;;;;;;;;;;;;;;;4.74;70.13;101848.28;5025657;28;19913;-62
2022/02/05 03:10:16;;;;;;;;;;;;;;;4.76;70.10;101836.13;5016881;28;19923;-62
2022/02/05 03:12:44;;;;;;;;;;;;;;;4.83;69.64;101847.47;5026450;28;19924;-62
2022/02/05 03:15:14;;;;;;;;;;;;;;;4.85;69.72;101849.22;5018293;28;20014;-62
2022/02/05 03:17:52;;;;;;;;;;;;;;;4.87;69.99;101836.16;5007969;28;19913;-63
2022/02/05 03:20:18;;;;;;;;;;;;;;;4.91;70.14;101837.97;5023787;28;19924;-62
2022/02/05 03:22:43;;;;;;;;;;;;;;;4.86;70.57;101839.66;5026275;28;19920;-62
2022/02/05 03:25:08;;;;;;;;;;;;;;;4.83;70.75;101856.19;5025538;28;19917;-61
2022/02/05 03:27:33;;;;;;;;;;;;;;;4.75;70.86;101834.34;5015093;28;19921;-61
2022/02/05 03:29:59;;;;;;;;;;;;;;;4.70;71.15;101849.13;5026899;28;19959;-61
2022/02/05 03:32:25;;;;;;;;;;;;;;;4.71;71.24;101843.91;5009293;28;20413;-61
2022/02/05 03:34:50;;;;;;;;;;;;;;;4.74;71.33;101837.84;5035538;28;19995;-62
2022/02/05 03:37:18;;;;;;;;;;;;;;;4.73;71.28;101841.31;5026134;28;19913;-61
2022/02/05 03:39:43;;;;;;;;;;;;;;;4.69;71.33;101848.25;5024708;28;19988;-62
2022/02/05 03:42:08;;;;;;;;;;;;;;;4.70;71.54;101843.91;5025804;28;19928;-63
2022/02/05 03:44:33;;;;;;;;;;;;;;;4.65;71.56;101870.88;5016865;28;20433;-61
2022/02/05 03:46:59;;;;;;;;;;;;;;;4.64;71.62;101861.25;5025176;28;19919;-62
2022/02/05 03:49:24;;;;;;;;;;;;;;;4.72;71.63;101856.09;5009225;28;20402;-62
2022/02/05 03:51:50;;;;;;;;;;;;;;;4.64;71.84;101853.44;5020690;28;19917;-62
2022/02/05 03:54:18;;;;;;;;;;;;;;;4.60;71.91;101856.88;5011359;28;19917;-61
2022/02/05 03:56:43;;;;;;;;;;;;;;;4.60;71.72;101862.09;5025993;28;19921;-63
2022/02/05 03:59:08;;;;;;;;;;;;;;;4.59;72.00;101862.97;5025158;28;19913;-63
2022/02/05 04:01:33;;;;;;;;;;;;;;;4.55;72.08;101859.47;5008793;28;19917;-61
2022/02/05 04:03:59;;;;;;;;;;;;;;;4.58;72.02;101868.19;5023584;28;19979;-62
2022/02/05 04:06:24;;;;;;;;;;;;;;;4.57;71.97;101872.53;5026422;28;20337;-67
2022/02/05 04:08:51;;;;;;;;;;;;;;;4.53;72.12;101887.31;5029094;28;20263;-62
2022/02/05 04:11:31;;;;;;;;;;;;;;;4.53;71.94;101882.09;5046008;28;20220;-62
2022/02/05 04:16:40;;;;;;;;;;;;;;;4.51;71.89;101886.41;5018741;28;19967;-61
2022/02/05 04:19:05;;;;;;;;;;;;;;;4.59;71.70;101880.38;5014280;28;19961;-61
2022/02/05 04:21:31;;;;;;;;;;;;;;;4.52;71.63;101890.75;5006234;28;19913;-61
2022/02/05 04:23:58;;;;;;;;;;;;;;;4.49;71.89;101895.09;5005949;28;19906;-61
2022/02/05 04:26:23;;;;;;;;;;;;;;;4.40;71.84;101894.13;5009204;28;19917;-61
2022/02/05 04:28:48;;;;;;;;;;;;;;;4.39;72.06;101891.50;5020117;28;20032;-61
2022/02/05 04:31:13;;;;;;;;;;;;;;;4.39;72.13;101894.13;5006035;28;20012;-62
2022/02/05 04:33:39;;;;;;;;;;;;;;;4.42;72.32;101894.16;5017891;28;20008;-62
2022/02/05 04:36:04;;;;;;;;;;;;;;;4.41;72.38;101898.50;5028459;28;20011;-62
2022/02/05 04:38:31;;;;;;;;;;;;;;;4.41;71.63;101898.50;5026355;28;19921;-61
2022/02/05 04:41:15;;;;;;;;;;;;;;;4.45;71.69;101902.00;5019885;28;19948;-63
2022/02/05 04:54:45;;;;;;;;;;;;;;;4.45;72.52;101915.06;5016511;28;19921;-62
2022/02/05 04:57:34;;;;;;;;;;;;;;;4.42;72.59;101917.63;5028371;28;19923;-63
2022/02/05 05:05:19;;;;;;;;;;;;;;;4.40;72.45;101916.78;5029452;28;20033;-62
2022/02/05 05:10:40;;;;;;;;;;;;;;;4.47;72.62;101915.06;5028223;28;20282;-62
2022/02/05 05:13:12;;;;;;;;;;;;;;;4.47;72.65;101928.13;5019420;28;20019;-63
2022/02/05 05:19:12;;;;;;;;;;;;;;;4.43;72.73;101922.88;5027399;28;20255;-63
2022/02/05 05:21:06;;;;;;;;;;;;;;;4.32;73.14;101928.84;5012915;28;19924;-63
2022/02/05 05:23:31;;;;;;;;;;;;;;;4.28;73.07;101926.22;5028864;28;19913;-63
2022/02/05 05:25:56;;;;;;;;;;;;;;;4.20;73.17;101925.28;5027793;28;19929;-63
2022/02/05 05:28:22;;;;;;;;;;;;;;;4.27;72.76;101927.06;5020826;28;19927;-61
2022/02/05 05:30:47;;;;;;;;;;;;;;;4.30;72.64;101929.72;5028193;28;20283;-63
2022/02/05 05:33:12;;;;;;;;;;;;;;;4.33;72.58;101926.25;5028609;28;20008;-62
2022/02/05 05:35:37;;;;;;;;;;;;;;;4.28;72.51;101928.81;5027541;28;19952;-63
2022/02/05 05:38:03;;;;;;;;;;;;;;;4.22;72.73;101944.44;5025032;28;20390;-63
2022/02/05 05:40:29;;;;;;;;;;;;;;;4.28;72.61;101948.84;5017049;28;19920;-62
2022/02/05 05:43:06;;;;;;;;;;;;;;;4.24;72.45;101957.50;5034245;28;19920;-62
2022/02/05 05:46:00;;;;;;;;;;;;;;;4.20;72.69;101946.16;5043686;28;19931;-63
2022/02/05 05:48:28;;;;;;;;;;;;;;;4.23;72.40;101940.97;5027814;28;20538;-62
2022/02/05 05:50:59;;;;;;;;;;;;;;;4.22;72.39;101949.66;5028030;28;19905;-62
2022/02/05 05:53:24;;;;;;;;;;;;;;;4.27;71.96;101945.34;5027231;28;20437;-62
2022/02/05 05:55:50;;;;;;;;;;;;;;;4.16;72.49;101946.97;5021442;28;19909;-63
2022/02/05 05:58:15;;;;;;;;;;;;;;;4.14;72.42;101948.69;5027662;28;19913;-62
2022/02/05 06:00:41;;;;;;;;;;;;;;;4.11;72.55;101946.03;5027763;28;19913;-64
2022/02/05 06:03:06;;;;;;;;;;;;;;;4.08;72.79;101946.88;5028124;28;20252;-64
2022/02/05 06:05:31;;;;;;;;;;;;;;;4.10;72.79;101946.91;5024408;28;19917;-62
2022/02/05 06:07:57;;;;;;;;;;;;;;;4.11;72.55;101949.53;5027094;28;19924;-62
2022/02/05 06:10:22;;;;;;;;;;;;;;;4.09;72.76;101955.59;5027835;28;19913;-61
2022/02/05 06:12:47;;;;;;;;;;;;;;;4.12;72.53;101956.50;5026795;28;19917;-61
2022/02/05 06:15:12;;;;;;;;;;;;;;;4.16;72.21;101958.25;5027368;28;19921;-62
2022/02/05 06:17:38;;;;;;;;;;;;;;;4.16;72.24;101962.63;5030846;28;19913;-62
2022/02/05 06:20:04;;;;;;;;;;;;;;;4.12;72.33;101961.72;5019547;28;20375;-64
2022/02/05 06:22:29;;;;;;;;;;;;;;;4.10;72.69;101959.94;5024737;28;20338;-62
2022/02/05 06:24:55;;;;;;;;;;;;;;;4.11;72.67;101959.06;5027082;28;20074;-62
2022/02/05 06:27:20;;;;;;;;;;;;;;;4.12;72.78;101971.28;5026323;28;19920;-62
2022/02/05 06:29:45;;;;;;;;;;;;;;;4.12;72.97;101963.47;5026272;28;19917;-61
2022/02/05 06:32:10;;;;;;;;;;;;;;;4.09;73.12;101959.06;5027724;28;19913;-63
2022/02/05 06:34:36;;;;;;;;;;;;;;;4.07;73.32;101959.91;5026774;28;19920;-63
2022/02/05 06:37:01;;;;;;;;;;;;;;;4.09;73.40;101953.00;5029610;28;19916;-63
2022/02/05 06:39:26;;;;;;;;;;;;;;;4.06;73.57;101961.63;5025626;28;20386;-65
2022/02/05 06:41:51;;;;;;;;;;;;;;;4.02;73.75;101960.75;5021024;28;19920;-61
2022/02/05 06:44:17;;;;;;;;;;;;;;;4.04;73.60;101968.59;5020739;28;19920;-64
2022/02/05 06:46:42;;;;;;;;;;;;;;;3.97;73.87;101975.44;5027410;28;19909;-62
2022/02/05 06:49:08;;;;;;;;;;;;;;;4.04;73.61;101977.25;5025953;28;19919;-62
2022/02/05 06:51:33;;;;;;;;;;;;;;;4.04;73.82;101979.00;5025313;28;19963;-62
2022/02/05 06:53:58;;;;;;;;;;;;;;;4.09;73.38;101979.94;5026784;28;20318;-61
2022/02/05 06:56:24;;;;;;;;;;;;;;;4.19;73.16;101986.16;5025621;28;19905;-62
2022/02/05 06:58:49;;;;;;;;;;;;;;;4.25;73.12;101986.19;5039000;28;19917;-65
2022/02/05 07:01:14;;;;;;;;;;;;;;;4.22;73.35;101985.28;5046713;28;20012;-62
2022/02/05 07:03:39;;;;;;;;;;;;;;;4.25;73.47;101990.56;5018370;28;19927;-64
2022/02/05 07:06:05;;;;;;;;;;;;;;;4.21;73.90;101984.41;5014220;28;19923;-59
2022/02/05 07:08:30;;;;;;;;;;;;;;;4.20;74.07;102003.53;5026701;28;19901;-72
2022/02/05 07:10:56;;;;;;;;;;;;;;;4.17;74.32;102004.38;5024213;28;19917;-63
2022/02/05 07:13:22;;;;;;;;;;;;;;;4.22;74.00;102006.16;5024660;28;19916;-64
2022/02/05 07:15:58;;;;;;;;;;;;;;;4.34;73.31;102008.94;5025797;28;19913;-63
2022/02/05 07:20:56;;;;;;;;;;;;;;;4.52;73.10;102015.19;5026359;28;19913;-63
2022/02/05 07:31:18;;;;;;;;;;;;;;;4.72;72.13;102023.22;5025303;28;19970;-60
2022/02/05 07:33:43;;;;;;;;;;;;;;;4.77;71.87;102031.09;5034032;28;19920;-62
2022/02/05 07:36:09;;;;;;;;;;;;;;;4.74;72.02;102029.34;5046047;28;19913;-61
2022/02/05 07:38:34;;;;;;;;;;;;;;;4.73;72.01;102027.56;5044582;28;20429;-62
2022/02/05 07:40:59;;;;;;;;;;;;;;;4.63;72.07;102039.66;5045187;28;19974;-61
2022/02/05 07:43:28;;;;;;;;;;;;;;;4.54;72.35;102037.84;5028738;28;19928;-63
2022/02/05 07:45:54;;;;;;;;;;;;;;;4.56;72.42;102035.25;4999244;28;19917;-63
2022/02/05 07:48:19;;;;;;;;;;;;;;;4.61;72.51;102036.16;4985321;28;20348;-63
2022/02/05 07:50:44;;;;;;;;;;;;;;;4.56;72.82;102040.47;5003940;28;19913;-63
2022/02/05 07:53:10;;;;;;;;;;;;;;;4.48;73.03;102039.53;5003652;28;19920;-62
2022/02/05 07:55:35;;;;;;;;;;;;;;;4.47;73.23;102035.13;5001888;28;19982;-63
2022/02/05 07:58:00;;;;;;;;;;;;;;;4.43;73.18;102029.88;5003144;28;19913;-62
2022/02/05 08:00:25;;;;;;;;;;;;;;;4.45;73.19;102029.91;5000486;28;19917;-63
2022/02/05 08:02:52;;;;;;;;;;;;;;;4.47;73.30;102028.19;5003744;28;19917;-64
2022/02/05 08:05:17;;;;;;;;;;;;;;;4.51;73.37;102021.25;5004803;28;19959;-63
2022/02/05 08:07:43;;;;;;;;;;;;;;;4.43;73.75;102016.84;5009669;28;20003;-64
2022/02/05 08:10:09;;;;;;;;;;;;;;;4.43;74.03;102021.19;5012089;28;19921;-63
2022/02/05 08:12:38;;;;;;;;;;;;;;;4.45;74.20;102014.25;5009604;28;19921;-63
2022/02/05 08:15:04;;;;;;;;;;;;;;;4.47;74.10;102022.97;5007087;28;19985;-62
2022/02/05 08:17:32;;;;;;;;;;;;;;;4.49;74.05;102021.25;5010123;28;20409;-63
2022/02/05 08:19:57;;;;;;;;;;;;;;;4.57;73.88;102017.84;5009321;28;19936;-62
2022/02/05 08:22:22;;;;;;;;;;;;;;;4.68;73.56;102011.88;5010039;28;20571;-62
2022/02/05 08:24:48;;;;;;;;;;;;;;;4.74;73.62;102018.00;4991460;28;19959;-62
2022/02/05 08:27:13;;;;;;;;;;;;;;;4.78;73.27;102007.63;5008760;28;19925;-62
2022/02/05 08:29:45;;;;;;;;;;;;;;;4.90;72.81;102012.06;5005816;28;20035;-63
2022/02/05 08:32:10;;;;;;;;;;;;;;;5.00;72.43;102020.84;5007055;28;19913;-62
2022/02/05 08:34:35;;;;;;;;;;;;;;;5.01;72.45;102025.22;5009610;28;20189;-61
2022/02/05 08:37:00;;;;;;;;;;;;;;;5.11;72.30;102038.34;5009765;28;20329;-62
2022/02/05 08:39:26;;;;;;;;;;;;;;;5.18;71.82;102029.72;5008975;28;20347;-62
2022/02/05 08:41:51;;;;;;;;;;;;;;;5.12;72.20;102042.72;5007712;28;20436;-61
2022/02/05 08:44:16;;;;;;;;;;;;;;;5.20;72.05;102046.28;5005837;28;19924;-61
2022/02/05 08:46:41;;;;;;;;;;;;;;;5.26;72.13;102059.41;5006722;28;19913;-61
2022/02/05 08:49:07;;;;;;;;;;;;;;;5.32;72.07;102061.19;5009095;28;19913;-60
2022/02/05 08:51:32;;;;;;;;;;;;;;;5.30;72.14;102074.22;4991440;28;19913;-61
2022/02/05 08:53:59;;;;;;;;;;;;;;;5.36;71.94;102062.94;5008556;28;20367;-61
2022/02/05 08:56:24;;;;;;;;;;;;;;;5.46;71.65;102076.09;5008254;28;20402;-61
2022/02/05 08:58:50;;;;;;;;;;;;;;;5.50;71.19;102076.13;5008960;28;19917;-62
2022/02/05 09:01:20;;;;;;;;;;;;;;;5.60;70.40;102077.06;5006177;28;19929;-61
2022/02/05 09:03:59;;;;;;;;;;;;;;;5.60;70.58;102091.91;5008476;28;20849;-61
2022/02/05 09:06:31;;;;;;;;;;;;;;;5.69;69.88;102086.72;5003351;28;19924;-61
2022/02/05 09:09:12;;;;;;;;;;;;;;;5.68;69.51;102092.81;5001324;28;19909;-61
2022/02/05 09:16:57;;;;;;;;;;;;;;;5.99;68.08;102074.69;4974673;28;19952;-61
2022/02/05 09:19:22;;;;;;;;;;;;;;;6.00;67.33;102081.69;5007441;28;19917;-61
2022/02/05 09:21:48;;;;;;;;;;;;;;;5.94;67.65;102102.56;5008768;28;20268;-61
2022/02/05 09:24:13;;;;;;;;;;;;;;;5.98;67.35;102078.16;5008098;28;19915;-64
2022/02/05 09:26:43;;;;;;;;;;;;;;;6.11;67.52;102078.28;5007807;28;19935;-60
2022/02/05 09:29:22;;;;;;;;;;;;;;;6.23;67.29;102090.53;5007983;28;19913;-61
2022/02/05 09:31:47;;;;;;;;;;;;;;;6.15;66.63;102091.38;5008172;28;20390;-62
2022/02/05 09:34:13;;;;;;;;;;;;;;;6.21;66.29;102072.22;5000785;28;20016;-60
2022/02/05 09:36:39;;;;;;;;;;;;;;;6.19;66.31;102079.16;5008897;28;19919;-61
2022/02/05 09:39:05;;;;;;;;;;;;;;;6.15;66.00;102065.22;5007633;28;19928;-61
2022/02/05 09:41:30;;;;;;;;;;;;;;;6.17;66.21;102073.06;5007618;28;19917;-60
2022/02/05 09:43:55;;;;;;;;;;;;;;;6.15;66.35;102069.56;5008313;28;20027;-60
2022/02/05 09:46:21;;;;;;;;;;;;;;;6.24;66.61;102063.50;5008114;28;19920;-61
2022/02/05 09:48:47;;;;;;;;;;;;;;;6.24;66.03;102064.38;5005273;28;20338;-61
2022/02/05 09:51:16;;;;;;;;;;;;;;;6.23;65.73;102062.59;5008136;28;19936;-61
2022/02/05 09:53:48;;;;;;;;;;;;;;;6.26;66.29;102056.53;4990404;28;19913;-61
2022/02/05 09:56:13;;;;;;;;;;;;;;;6.32;66.33;102054.78;5006483;28;19913;-59
2022/02/05 09:58:38;;;;;;;;;;;;;;;6.26;65.77;102065.25;5007166;28;20366;-61
2022/02/05 10:01:12;;;;;;;;;;;;;;;6.24;65.46;102053.91;5006564;28;20457;-62
2022/02/05 10:03:39;;;;;;;;;;;;;;;6.36;65.92;102063.56;5005025;28;20625;-60
2022/02/05 10:06:13;;;;;;;;;;;;;;;6.51;65.42;102048.75;5007979;28;20036;-61
2022/02/05 10:08:39;;;;;;;;;;;;;;;6.67;64.93;102052.28;4986451;28;19917;-61
2022/02/05 10:11:04;;;;;;;;;;;;;;;6.72;64.82;102063.66;5006856;28;19917;-61
2022/02/05 10:13:30;;;;;;;;;;;;;;;6.77;64.43;102058.41;5007521;28;20294;-61
2022/02/05 10:15:57;;;;;;;;;;;;;;;7.00;64.31;102058.44;5006906;28;19919;-59
2022/02/05 10:18:38;;;;;;;;;;;;;;;7.13;63.67;102051.44;5002956;28;19962;-63
2022/02/05 10:21:24;;;;;;;;;;;;;;;7.19;63.35;102056.69;5003835;28;19920;-61
2022/02/05 10:23:53;;;;;;;;;;;;;;;7.27;62.80;102050.56;5001037;28;20326;-60
2022/02/05 10:26:37;;;;;;;;;;;;;;;7.30;62.76;102053.19;5007431;28;19956;-62
2022/02/05 10:29:06;;;;;;;;;;;;;;;7.41;62.48;102066.31;5007110;28;19959;-60
2022/02/05 10:31:51;;;;;;;;;;;;;;;7.31;62.44;102061.06;5007228;28;20633;-61
2022/02/05 10:34:16;;;;;;;;;;;;;;;7.48;61.82;102049.69;5006892;28;20421;-62
2022/02/05 10:36:43;;;;;;;;;;;;;;;7.40;61.41;102060.16;5004785;28;20530;-62
2022/02/05 10:39:12;;;;;;;;;;;;;;;7.29;61.73;102061.94;5006821;28;19913;-60
2022/02/05 10:44:23;;;;;;;;;;;;;;;7.24;60.81;102048.81;5007726;28;19924;-59
2022/02/05 10:46:55;;;;;;;;;;;;;;;7.30;61.33;102032.22;5006545;28;20011;-58
2022/02/05 10:49:34;;;;;;;;;;;;;;;7.26;60.88;102047.09;5006186;28;20610;-61
2022/02/05 10:52:01;;;;;;;;;;;;;;;7.25;61.13;102040.06;5003907;28;19912;-62
2022/02/05 10:54:49;;;;;;;;;;;;;;;7.24;61.47;102047.94;5004684;28;19913;-64
2022/02/05 10:57:22;;;;;;;;;;;;;;;7.20;61.69;102047.09;4989597;28;19920;-62
2022/02/05 11:05:14;;;;;;;;;;;;;;;7.25;62.19;102045.31;4990188;28;20021;-64
2022/02/05 11:05:51;;;;;;;;;;;;;;;7.47;62.72;102034.81;4991113;28;20318;-60
2022/02/05 11:08:18;;;;;;;;;;;;;;;7.68;62.47;102038.28;5006155;28;19913;-63
2022/02/05 11:19:18;;;;;;;;;;;;;;;7.65;62.18;102035.66;5006385;28;20016;-64
2022/02/05 11:21:18;;;;;;;;;;;;;;;7.65;62.04;102022.53;5004364;28;20007;-63
2022/02/05 11:23:47;;;;;;;;;;;;;;;7.57;62.12;102027.81;5006307;28;19992;-63
2022/02/05 11:26:12;;;;;;;;;;;;;;;7.68;61.77;102028.63;4987800;28;19913;-62
2022/02/05 11:28:42;;;;;;;;;;;;;;;7.66;61.40;102019.03;4988569;28;19975;-62
2022/02/05 11:31:14;;;;;;;;;;;;;;;7.77;60.90;102021.63;4994894;28;20503;-63
2022/02/05 11:33:40;;;;;;;;;;;;;;;7.95;60.56;102011.06;4989469;28;19971;-62
2022/02/05 11:38:42;;;;;;;;;;;;;;;8.21;59.45;102011.81;5006977;28;19951;-61
2022/02/05 11:41:08;;;;;;;;;;;;;;;8.32;58.71;102012.66;4986635;28;19940;-62
2022/02/05 11:43:34;;;;;;;;;;;;;;;8.28;58.65;102007.44;4988413;28;19913;-62
2022/02/05 11:46:15;;;;;;;;;;;;;;;8.22;59.11;102003.94;5005694;28;19921;-62
2022/02/05 11:48:41;;;;;;;;;;;;;;;8.24;59.65;102010.97;5006951;28;19913;-62
2022/02/05 11:51:10;;;;;;;;;;;;;;;8.55;59.30;102011.66;5004704;28;19921;-63
2022/02/05 11:53:54;;;;;;;;;;;;;;;8.64;57.74;102007.25;5004002;28;19909;-63
2022/02/05 11:56:19;;;;;;;;;;;;;;;8.49;58.41;102010.81;5005966;28;19924;-63
2022/02/05 11:58:54;;;;;;;;;;;;;;;8.50;58.68;101997.66;5005384;28;20342;-63
2022/02/05 12:01:32;;;;;;;;;;;;;;;8.64;58.17;102004.63;5005442;28;19913;-62
2022/02/05 12:04:04;;;;;;;;;;;;;;;8.87;57.39;101998.28;5006116;28;20339;-62
2022/02/05 12:06:43;;;;;;;;;;;;;;;8.84;56.24;101997.44;4987634;28;19927;-63
2022/02/05 12:09:28;;;;;;;;;;;;;;;8.78;57.11;101981.72;5004868;28;19966;-63
2022/02/05 12:11:54;;;;;;;;;;;;;;;8.59;58.39;101991.50;5006790;28;19998;-62
2022/02/05 12:14:19;;;;;;;;;;;;;;;8.59;59.73;101981.00;5004378;28;20356;-62
2022/02/05 12:17:05;;;;;;;;;;;;;;;8.77;59.41;101980.00;5003059;28;19933;-62
2022/02/05 12:19:30;;;;;;;;;;;;;;;8.82;59.17;101980.81;5003794;28;19921;-64
2022/02/05 12:21:58;;;;;;;;;;;;;;;9.22;57.63;101955.91;5002077;28;19913;-62
2022/02/05 12:24:37;;;;;;;;;;;;;;;9.59;56.44;101966.91;5004094;28;20000;-63
2022/02/05 12:27:03;;;;;;;;;;;;;;;9.69;56.48;101952.75;5004683;28;19940;-62
2022/02/05 12:29:29;;;;;;;;;;;;;;;9.95;55.94;101974.38;5003847;28;19920;-63
2022/02/05 12:31:54;;;;;;;;;;;;;;;10.67;53.75;101958.44;5005451;28;19924;-63
2022/02/05 12:34:20;;;;;;;;;;;;;;;11.30;52.08;101960.88;5005112;28;20702;-63
2022/02/05 12:36:51;;;;;;;;;;;;;;;11.58;51.43;101938.34;5005837;28;19913;-63
2022/02/05 12:39:17;;;;;;;;;;;;;;;11.32;52.19;101935.31;5002909;28;20521;-64
2022/02/05 12:41:50;;;;;;;;;;;;;;;11.33;51.25;101944.13;4987349;28;19921;-62
2022/02/05 12:44:18;;;;;;;;;;;;;;;11.81;50.42;101948.44;5004787;28;20398;-63
2022/02/05 12:46:47;;;;;;;;;;;;;;;12.47;48.73;101933.78;5005963;28;20287;-62
2022/02/05 12:49:57;;;;;;;;;;;;;;;12.79;47.65;101950.59;5005327;28;20363;-62
2022/02/05 12:52:01;;;;;;;;;;;;;;;12.21;48.39;101954.63;4976940;28;19944;-63
2022/02/05 12:54:29;;;;;;;;;;;;;;;11.69;49.84;101949.56;5007504;28;20391;-63
2022/02/05 12:56:55;;;;;;;;;;;;;;;11.78;50.30;101945.84;5007414;28;19913;-64
2022/02/05 12:59:27;;;;;;;;;;;;;;;12.25;48.63;101926.34;5008736;28;19920;-62
2022/02/05 13:02:05;;;;;;;;;;;;;;;12.88;46.47;101929.22;4972092;28;20396;-63
2022/02/05 13:04:32;;;;;;;;;;;;;;;13.29;46.09;101928.13;4988882;28;20338;-63
2022/02/05 13:07:09;;;;;;;;;;;;;;;12.86;46.33;101919.59;4989440;28;19913;-64
2022/02/05 13:09:38;;;;;;;;;;;;;;;13.01;46.04;101919.16;4991322;28;19917;-63
2022/02/05 13:12:05;;;;;;;;;;;;;;;12.95;45.71;101907.91;5006554;28;19921;-63
2022/02/05 13:14:34;;;;;;;;;;;;;;;12.66;46.62;101896.28;5008441;28;20003;-62
2022/02/05 13:16:59;;;;;;;;;;;;;;;12.12;48.09;101909.91;5007430;28;20287;-62
2022/02/05 13:19:28;;;;;;;;;;;;;;;12.50;47.32;101908.13;4995321;28;19917;-64
2022/02/05 13:27:45;;;;;;;;;;;;;;;12.98;46.86;101892.78;4992916;28;19920;-62
2022/02/05 13:33:36;;;;;;;;;;;;;;;12.58;47.80;101894.72;5007409;28;19979;-63
2022/02/05 13:36:07;;;;;;;;;;;;;;;11.32;51.59;101881.69;5006156;28;20274;-63
2022/02/05 13:38:49;;;;;;;;;;;;;;;10.67;53.26;101882.00;5005909;28;19963;-62
2022/02/05 13:41:14;;;;;;;;;;;;;;;10.42;54.34;101863.09;5005432;28;19921;-62
2022/02/05 13:43:54;;;;;;;;;;;;;;;10.51;54.84;101870.88;5007741;28;19935;-61
2022/02/05 13:46:20;;;;;;;;;;;;;;;10.94;53.16;101856.03;5006822;28;20030;-63
2022/02/05 13:48:46;;;;;;;;;;;;;;;11.00;52.95;101862.97;5006705;28;20426;-64
2022/02/05 13:51:11;;;;;;;;;;;;;;;11.29;53.07;101858.00;4988904;28;19917;-63
2022/02/05 13:53:53;;;;;;;;;;;;;;;10.88;53.87;101858.78;5007523;28;19913;-62
2022/02/05 13:56:19;;;;;;;;;;;;;;;10.61;54.86;101855.75;5004432;28;19920;-62
2022/02/05 13:58:44;;;;;;;;;;;;;;;10.02;56.98;101851.44;5005567;28;19917;-63
2022/02/05 14:01:09;;;;;;;;;;;;;;;9.78;57.82;101850.91;5012841;28;19917;-62
2022/02/05 14:03:40;;;;;;;;;;;;;;;9.92;57.80;101853.31;5007579;28;20375;-62
2022/02/05 14:06:07;;;;;;;;;;;;;;;10.41;55.43;101837.63;5001604;28;19921;-62
2022/02/05 14:08:33;;;;;;;;;;;;;;;10.29;55.80;101841.34;5005653;28;20007;-62
2022/02/05 14:10:59;;;;;;;;;;;;;;;10.47;54.98;101848.97;5018740;28;20014;-64
2022/02/05 14:13:25;;;;;;;;;;;;;;;10.23;55.82;101844.94;5012378;28;20121;-63
2022/02/05 14:15:58;;;;;;;;;;;;;;;10.17;55.96;101839.78;4996565;28;19920;-64
2022/02/05 14:18:24;;;;;;;;;;;;;;;9.99;56.75;101862.84;5007335;28;19920;-62
2022/02/05 14:20:54;;;;;;;;;;;;;;;10.21;56.69;101852.84;5004984;28;19917;-62
2022/02/05 14:23:21;;;;;;;;;;;;;;;10.43;55.49;101856.91;5005404;28;20232;-63
2022/02/05 14:25:48;;;;;;;;;;;;;;;10.78;54.64;101830.84;5000846;28;20387;-63
2022/02/05 14:28:34;;;;;;;;;;;;;;;10.73;54.76;101839.72;5003335;28;19931;-62
2022/02/05 14:31:07;;;;;;;;;;;;;;;10.39;56.10;101834.16;5002991;28;19921;-62
2022/02/05 14:33:43;;;;;;;;;;;;;;;10.71;55.73;101827.44;5005457;28;20471;-63
2022/02/05 14:36:34;;;;;;;;;;;;;;;10.57;55.26;101838.25;5003145;28;20415;-62
2022/02/05 14:41:43;;;;;;;;;;;;;;;9.95;57.19;101821.69;5004474;28;20328;-62
2022/02/05 14:44:09;;;;;;;;;;;;;;;10.02;57.51;101819.84;5003533;28;19909;-63
2022/02/05 14:46:34;;;;;;;;;;;;;;;9.85;57.93;101819.16;5006797;28;19921;-63
2022/02/05 14:48:59;;;;;;;;;;;;;;;9.72;58.41;101820.25;5004904;28;20027;-62
2022/02/05 14:51:25;;;;;;;;;;;;;;;9.35;59.23;101809.38;5006846;28;20138;-62
2022/02/05 14:53:50;;;;;;;;;;;;;;;9.27;60.08;101813.84;5005942;28;20260;-62
2022/02/05 14:56:15;;;;;;;;;;;;;;;9.25;59.86;101812.13;4997314;28;20391;-63
2022/02/05 14:58:40;;;;;;;;;;;;;;;9.11;60.48;101802.66;5002639;28;19948;-63
2022/02/05 15:01:06;;;;;;;;;;;;;;;8.91;61.22;101784.50;5004226;28;20074;-63
2022/02/05 15:03:34;;;;;;;;;;;;;;;8.82;61.00;101788.09;5006678;28;19913;-63
2022/02/05 15:06:04;;;;;;;;;;;;;;;8.69;61.85;101777.72;5007408;28;20003;-63
2022/02/05 15:08:29;;;;;;;;;;;;;;;8.66;62.05;101777.75;5004194;28;19952;-63
2022/02/05 15:10:55;;;;;;;;;;;;;;;8.56;62.89;101791.88;4990123;28;19957;-62
2022/02/05 15:13:20;;;;;;;;;;;;;;;8.42;63.19;101815.59;4998556;28;19917;-62
2022/02/05 15:15:51;;;;;;;;;;;;;;;8.42;63.44;101784.97;5004591;28;19920;-64
2022/02/05 15:18:16;;;;;;;;;;;;;;;8.24;63.42;101775.50;5004210;28;19921;-63
2022/02/05 15:20:42;;;;;;;;;;;;;;;8.12;63.72;101799.25;5002352;28;19921;-64